ETH311 HSSK-HAAB
Flight info
| Callsign | ETH311 |
|---|---|
| Flight time | 1h 28m |
| Altitude | 35000 |
| Route | GERAP2B GERAP DCT EMITA P720 TIKAT TIKAT1A |
| Aircraft | B738/M-SDE2E3FGHIRWXY/LB1 |
Departure
| Time | 2026-05-05 01:22 |
|---|---|
| Airport | Khartoum International Airport (HSSK) |
Arrival
| Time | 2026-05-05 02:50 |
|---|---|
| Airport | Addis Ababa Bole International Airport (HAAB) |
| Time | Latitude | Longitude | Altitude | Speed | Heading |
|---|---|---|---|---|---|
| 2026-05-05 01:06 | 15.58416 | 32.55091 | 1265 ft | 0 kts | 269° |
| 2026-05-05 01:15 | 15.58416 | 32.55107 | 1265 ft | 9 kts | 262° |
| 2026-05-05 01:15 | 15.58423 | 32.55133 | 1265 ft | 9 kts | 238° |
| 2026-05-05 01:15 | 15.58440 | 32.55150 | 1265 ft | 9 kts | 187° |
| 2026-05-05 01:16 | 15.58446 | 32.55151 | 1265 ft | 0 kts | 179° |
| 2026-05-05 01:19 | 15.58416 | 32.55151 | 1265 ft | 8 kts | 179° |
| 2026-05-05 01:19 | 15.58349 | 32.55152 | 1265 ft | 12 kts | 179° |
| 2026-05-05 01:19 | 15.58252 | 32.55153 | 1265 ft | 16 kts | 181° |
| 2026-05-05 01:19 | 15.58128 | 32.55156 | 1273 ft | 20 kts | 181° |
| 2026-05-05 01:20 | 15.58012 | 32.55226 | 1267 ft | 21 kts | 131° |
| 2026-05-05 01:20 | 15.57886 | 32.55321 | 1271 ft | 24 kts | 165° |
| 2026-05-05 01:20 | 15.57743 | 32.55328 | 1269 ft | 17 kts | 173° |
| 2026-05-05 01:20 | 15.57642 | 32.55372 | 1269 ft | 12 kts | 191° |
| 2026-05-05 01:21 | 15.57652 | 32.55328 | 1270 ft | 8 kts | 341° |
| 2026-05-05 01:21 | 15.57720 | 32.55327 | 1270 ft | 19 kts | 0° |
| 2026-05-05 01:21 | 15.57994 | 32.55325 | 1271 ft | 66 kts | 360° |
| 2026-05-05 01:21 | 15.58638 | 32.55318 | 1266 ft | 118 kts | 359° |
| 2026-05-05 01:22 | 15.59613 | 32.55305 | 1272 ft | 161 kts | 359° |
| 2026-05-05 01:22 | 15.60804 | 32.55286 | 1558 ft | 177 kts | 1° |
| 2026-05-05 01:22 | 15.62036 | 32.55273 | 2168 ft | 180 kts | 0° |
| 2026-05-05 01:22 | 15.63342 | 32.55269 | 2573 ft | 195 kts | 0° |
| 2026-05-05 01:23 | 15.64751 | 32.55264 | 2956 ft | 209 kts | 0° |
| 2026-05-05 01:23 | 15.66257 | 32.55254 | 3287 ft | 223 kts | 1° |
| 2026-05-05 01:23 | 15.67787 | 32.55556 | 3724 ft | 228 kts | 27° |
| 2026-05-05 01:23 | 15.68929 | 32.56678 | 4506 ft | 229 kts | 58° |
| 2026-05-05 01:24 | 15.69307 | 32.58277 | 5255 ft | 239 kts | 91° |
| 2026-05-05 01:24 | 15.68706 | 32.59902 | 5995 ft | 252 kts | 127° |
| 2026-05-05 01:24 | 15.67264 | 32.60978 | 6726 ft | 261 kts | 150° |
| 2026-05-05 01:24 | 15.65565 | 32.61735 | 7391 ft | 268 kts | 157° |
| 2026-05-05 01:25 | 15.63789 | 32.62387 | 8084 ft | 272 kts | 158° |
| 2026-05-05 01:25 | 15.61999 | 32.63055 | 8781 ft | 275 kts | 156° |
| 2026-05-05 01:25 | 15.60793 | 32.63538 | 9238 ft | 276 kts | 156° |
| 2026-05-05 01:25 | 15.59024 | 32.64283 | 9931 ft | 278 kts | 155° |
| 2026-05-05 01:26 | 15.57239 | 32.65051 | 10659 ft | 278 kts | 155° |
| 2026-05-05 01:26 | 15.55453 | 32.65813 | 11395 ft | 277 kts | 156° |
| 2026-05-05 01:26 | 15.53668 | 32.66564 | 12141 ft | 277 kts | 156° |
| 2026-05-05 01:26 | 15.51884 | 32.67310 | 12893 ft | 276 kts | 157° |
| 2026-05-05 01:27 | 15.50097 | 32.68057 | 13602 ft | 278 kts | 158° |
| 2026-05-05 01:27 | 15.48301 | 32.68809 | 14286 ft | 280 kts | 158° |
| 2026-05-05 01:27 | 15.46491 | 32.69568 | 14965 ft | 281 kts | 158° |
| 2026-05-05 01:27 | 15.44676 | 32.70330 | 15651 ft | 282 kts | 158° |
| 2026-05-05 01:28 | 15.42854 | 32.71094 | 16352 ft | 282 kts | 158° |
| 2026-05-05 01:28 | 15.41031 | 32.71858 | 17005 ft | 284 kts | 160° |
| 2026-05-05 01:28 | 15.39246 | 32.72763 | 17598 ft | 289 kts | 148° |
| 2026-05-05 01:28 | 15.37658 | 32.74125 | 17920 ft | 305 kts | 140° |
| 2026-05-05 01:29 | 15.36077 | 32.75670 | 18173 ft | 321 kts | 139° |
| 2026-05-05 01:29 | 15.34443 | 32.77331 | 18402 ft | 337 kts | 138° |
| 2026-05-05 01:29 | 15.32735 | 32.79069 | 18608 ft | 352 kts | 138° |
| 2026-05-05 01:29 | 15.30933 | 32.80871 | 18786 ft | 368 kts | 138° |
| 2026-05-05 01:30 | 15.29046 | 32.82734 | 18966 ft | 382 kts | 139° |
| 2026-05-05 01:30 | 15.27104 | 32.84647 | 19372 ft | 388 kts | 139° |
| 2026-05-05 01:30 | 15.25141 | 32.86589 | 19831 ft | 393 kts | 138° |
| 2026-05-05 01:30 | 15.23157 | 32.88559 | 20297 ft | 396 kts | 138° |
| 2026-05-05 01:31 | 15.21187 | 32.90516 | 20744 ft | 400 kts | 138° |
| 2026-05-05 01:31 | 15.19169 | 32.92518 | 21181 ft | 403 kts | 138° |
| 2026-05-05 01:31 | 15.17132 | 32.94535 | 21608 ft | 407 kts | 138° |
| 2026-05-05 01:31 | 15.15078 | 32.96566 | 22020 ft | 410 kts | 138° |
| 2026-05-05 01:32 | 15.13009 | 32.98614 | 22417 ft | 413 kts | 138° |
| 2026-05-05 01:32 | 15.10927 | 33.00674 | 22800 ft | 416 kts | 138° |
| 2026-05-05 01:32 | 15.08827 | 33.02752 | 23176 ft | 419 kts | 138° |
| 2026-05-05 01:32 | 15.06711 | 33.04845 | 23537 ft | 422 kts | 138° |
| 2026-05-05 01:33 | 15.04582 | 33.06951 | 23884 ft | 424 kts | 138° |
| 2026-05-05 01:33 | 15.02438 | 33.09069 | 24219 ft | 427 kts | 138° |
| 2026-05-05 01:33 | 15.00282 | 33.11199 | 24556 ft | 429 kts | 138° |
| 2026-05-05 01:33 | 14.98120 | 33.13336 | 24889 ft | 431 kts | 138° |
| 2026-05-05 01:34 | 14.95945 | 33.15484 | 25216 ft | 433 kts | 139° |
| 2026-05-05 01:34 | 14.93759 | 33.17642 | 25529 ft | 436 kts | 139° |
| 2026-05-05 01:34 | 14.91563 | 33.19810 | 25841 ft | 437 kts | 139° |
| 2026-05-05 01:34 | 14.89384 | 33.21960 | 26135 ft | 439 kts | 139° |
| 2026-05-05 01:35 | 14.87167 | 33.24146 | 26433 ft | 441 kts | 139° |
| 2026-05-05 01:35 | 14.84943 | 33.26339 | 26725 ft | 443 kts | 138° |
| 2026-05-05 01:35 | 14.82709 | 33.28540 | 27008 ft | 445 kts | 138° |
| 2026-05-05 01:35 | 14.80461 | 33.30751 | 27279 ft | 446 kts | 139° |
| 2026-05-05 01:36 | 14.78207 | 33.32965 | 27545 ft | 448 kts | 139° |
| 2026-05-05 01:36 | 14.75941 | 33.35190 | 27804 ft | 450 kts | 139° |
| 2026-05-05 01:36 | 14.73668 | 33.37423 | 28059 ft | 451 kts | 139° |
| 2026-05-05 01:36 | 14.71391 | 33.39660 | 28307 ft | 453 kts | 139° |
| 2026-05-05 01:37 | 14.69100 | 33.41910 | 28548 ft | 454 kts | 139° |
| 2026-05-05 01:37 | 14.66805 | 33.44163 | 28778 ft | 456 kts | 139° |
| 2026-05-05 01:37 | 14.64501 | 33.46423 | 29010 ft | 457 kts | 139° |
| 2026-05-05 01:37 | 14.62190 | 33.48689 | 29237 ft | 459 kts | 139° |
| 2026-05-05 01:38 | 14.59872 | 33.50963 | 29454 ft | 460 kts | 139° |
| 2026-05-05 01:38 | 14.57550 | 33.53240 | 29667 ft | 461 kts | 139° |
| 2026-05-05 01:38 | 14.55217 | 33.55526 | 29873 ft | 463 kts | 139° |
| 2026-05-05 01:38 | 14.52878 | 33.57817 | 30073 ft | 464 kts | 139° |
| 2026-05-05 01:39 | 14.50540 | 33.60107 | 30353 ft | 463 kts | 139° |
| 2026-05-05 01:39 | 14.48200 | 33.62399 | 30615 ft | 463 kts | 139° |
| 2026-05-05 01:39 | 14.45868 | 33.64682 | 30879 ft | 462 kts | 139° |
| 2026-05-05 01:39 | 14.43565 | 33.66935 | 31139 ft | 462 kts | 139° |
| 2026-05-05 01:40 | 14.41235 | 33.69214 | 31390 ft | 462 kts | 139° |
| 2026-05-05 01:40 | 14.38900 | 33.71497 | 31635 ft | 462 kts | 139° |
| 2026-05-05 01:40 | 14.36569 | 33.73776 | 31882 ft | 462 kts | 139° |
| 2026-05-05 01:40 | 14.34237 | 33.76056 | 32134 ft | 462 kts | 139° |
| 2026-05-05 01:41 | 14.31911 | 33.78334 | 32369 ft | 462 kts | 139° |
| 2026-05-05 01:41 | 14.29580 | 33.80621 | 32601 ft | 462 kts | 139° |
| 2026-05-05 01:41 | 14.27255 | 33.82900 | 32850 ft | 462 kts | 139° |
| 2026-05-05 01:41 | 14.24929 | 33.85178 | 33078 ft | 462 kts | 139° |
| 2026-05-05 01:42 | 14.22597 | 33.87458 | 33305 ft | 462 kts | 139° |
| 2026-05-05 01:42 | 14.20268 | 33.89735 | 33542 ft | 461 kts | 139° |
| 2026-05-05 01:42 | 14.17939 | 33.92014 | 33760 ft | 461 kts | 139° |
| 2026-05-05 01:42 | 14.15610 | 33.94291 | 33988 ft | 462 kts | 139° |
| 2026-05-05 01:43 | 14.13280 | 33.96569 | 34210 ft | 462 kts | 139° |
| 2026-05-05 01:43 | 14.10952 | 33.98843 | 34447 ft | 461 kts | 139° |
| 2026-05-05 01:43 | 14.08629 | 34.01113 | 34703 ft | 460 kts | 139° |
| 2026-05-05 01:43 | 14.06306 | 34.03382 | 34914 ft | 460 kts | 139° |
| 2026-05-05 01:44 | 14.01637 | 34.07938 | 34921 ft | 464 kts | 139° |
| 2026-05-05 01:44 | 13.96970 | 34.12492 | 34920 ft | 465 kts | 139° |
| 2026-05-05 01:45 | 13.92279 | 34.17066 | 34919 ft | 462 kts | 139° |
| 2026-05-05 01:45 | 13.87633 | 34.21594 | 34920 ft | 458 kts | 139° |
| 2026-05-05 01:46 | 13.83013 | 34.26092 | 34920 ft | 457 kts | 139° |
| 2026-05-05 01:46 | 13.78388 | 34.30593 | 34920 ft | 458 kts | 139° |
| 2026-05-05 01:47 | 13.73754 | 34.35101 | 34921 ft | 459 kts | 139° |
| 2026-05-05 01:47 | 13.69120 | 34.39606 | 34921 ft | 458 kts | 139° |
| 2026-05-05 01:48 | 13.64514 | 34.44081 | 34921 ft | 458 kts | 139° |
| 2026-05-05 01:48 | 13.59876 | 34.48585 | 34921 ft | 458 kts | 139° |
| 2026-05-05 01:49 | 13.55239 | 34.53085 | 34921 ft | 458 kts | 139° |
| 2026-05-05 01:49 | 13.50602 | 34.57584 | 34920 ft | 458 kts | 139° |
| 2026-05-05 01:50 | 13.45962 | 34.62081 | 34920 ft | 458 kts | 139° |
| 2026-05-05 01:50 | 13.41324 | 34.66575 | 34920 ft | 458 kts | 139° |
| 2026-05-05 01:51 | 13.36685 | 34.71068 | 34920 ft | 458 kts | 139° |
| 2026-05-05 01:51 | 13.32047 | 34.75557 | 34921 ft | 458 kts | 139° |
| 2026-05-05 01:52 | 13.27435 | 34.80017 | 34920 ft | 458 kts | 139° |
| 2026-05-05 01:52 | 13.22794 | 34.84504 | 34920 ft | 458 kts | 139° |
| 2026-05-05 01:53 | 13.18144 | 34.88997 | 34921 ft | 459 kts | 138° |
| 2026-05-05 01:53 | 13.13499 | 34.93483 | 34920 ft | 458 kts | 138° |
| 2026-05-05 01:54 | 13.08861 | 34.97959 | 34920 ft | 458 kts | 138° |
| 2026-05-05 01:54 | 13.04214 | 35.02441 | 34920 ft | 458 kts | 138° |
| 2026-05-05 01:55 | 12.99568 | 35.06921 | 34920 ft | 458 kts | 138° |
| 2026-05-05 01:55 | 12.94964 | 35.11358 | 34920 ft | 457 kts | 138° |
| 2026-05-05 01:56 | 12.90319 | 35.15830 | 34920 ft | 458 kts | 138° |
| 2026-05-05 01:56 | 12.85679 | 35.20297 | 34920 ft | 457 kts | 138° |
| 2026-05-05 01:57 | 12.81037 | 35.24763 | 34921 ft | 457 kts | 138° |
| 2026-05-05 01:57 | 12.76398 | 35.29224 | 34929 ft | 457 kts | 138° |
| 2026-05-05 01:58 | 12.71763 | 35.33678 | 34943 ft | 457 kts | 138° |
| 2026-05-05 01:58 | 12.67125 | 35.38133 | 34946 ft | 457 kts | 138° |
| 2026-05-05 01:59 | 12.62485 | 35.42588 | 34946 ft | 457 kts | 138° |
| 2026-05-05 01:59 | 12.57847 | 35.47038 | 34949 ft | 456 kts | 138° |
| 2026-05-05 02:00 | 12.53214 | 35.51481 | 34946 ft | 456 kts | 138° |
| 2026-05-05 02:00 | 12.48586 | 35.55917 | 34946 ft | 456 kts | 138° |
| 2026-05-05 02:01 | 12.43988 | 35.60322 | 34948 ft | 456 kts | 137° |
| 2026-05-05 02:01 | 12.39353 | 35.64744 | 34945 ft | 456 kts | 139° |
| 2026-05-05 02:02 | 12.34563 | 35.68994 | 34933 ft | 455 kts | 141° |
| 2026-05-05 02:02 | 12.29749 | 35.73195 | 34941 ft | 455 kts | 139° |
| 2026-05-05 02:03 | 12.25011 | 35.77457 | 35013 ft | 453 kts | 139° |
| 2026-05-05 02:03 | 12.21064 | 35.80976 | 35076 ft | 453 kts | 140° |
| 2026-05-05 02:04 | 12.15482 | 35.85917 | 35140 ft | 455 kts | 140° |
| 2026-05-05 02:04 | 12.10701 | 35.90171 | 35150 ft | 456 kts | 139° |
| 2026-05-05 02:05 | 12.05920 | 35.94420 | 35158 ft | 454 kts | 140° |
| 2026-05-05 02:05 | 12.01152 | 35.98647 | 35160 ft | 453 kts | 140° |
| 2026-05-05 02:06 | 11.96389 | 36.02874 | 35161 ft | 454 kts | 140° |
| 2026-05-05 02:06 | 11.91625 | 36.07098 | 35168 ft | 454 kts | 140° |
| 2026-05-05 02:07 | 11.86858 | 36.11323 | 35175 ft | 454 kts | 140° |
| 2026-05-05 02:07 | 11.82090 | 36.15546 | 35176 ft | 454 kts | 140° |
| 2026-05-05 02:08 | 11.77323 | 36.19767 | 35181 ft | 453 kts | 140° |
| 2026-05-05 02:08 | 11.72558 | 36.23985 | 35181 ft | 454 kts | 140° |
| 2026-05-05 02:09 | 11.67790 | 36.28201 | 35179 ft | 453 kts | 140° |
| 2026-05-05 02:09 | 11.63060 | 36.32384 | 35185 ft | 453 kts | 140° |
| 2026-05-05 02:10 | 11.58299 | 36.36592 | 35188 ft | 453 kts | 140° |
| 2026-05-05 02:10 | 11.53529 | 36.40805 | 35191 ft | 453 kts | 140° |
| 2026-05-05 02:11 | 11.48770 | 36.45006 | 35195 ft | 452 kts | 140° |
| 2026-05-05 02:11 | 11.44018 | 36.49200 | 35196 ft | 452 kts | 140° |
| 2026-05-05 02:12 | 11.36889 | 36.55488 | 35204 ft | 452 kts | 140° |
| 2026-05-05 02:13 | 11.32137 | 36.59677 | 35207 ft | 452 kts | 139° |
| 2026-05-05 02:13 | 11.27386 | 36.63863 | 35210 ft | 451 kts | 140° |
| 2026-05-05 02:14 | 11.22645 | 36.68038 | 35213 ft | 450 kts | 140° |
| 2026-05-05 02:14 | 11.17937 | 36.72182 | 35217 ft | 451 kts | 140° |
| 2026-05-05 02:15 | 11.13192 | 36.76357 | 35221 ft | 450 kts | 140° |
| 2026-05-05 02:15 | 11.08454 | 36.80525 | 35224 ft | 450 kts | 140° |
| 2026-05-05 02:16 | 11.03712 | 36.84693 | 35225 ft | 450 kts | 140° |
| 2026-05-05 02:16 | 10.99772 | 36.88156 | 35230 ft | 450 kts | 140° |
| 2026-05-05 02:17 | 10.95039 | 36.92313 | 35234 ft | 450 kts | 140° |
| 2026-05-05 02:17 | 10.90302 | 36.96472 | 35235 ft | 450 kts | 140° |
| 2026-05-05 02:18 | 10.85568 | 37.00627 | 35238 ft | 449 kts | 140° |
| 2026-05-05 02:18 | 10.80833 | 37.04781 | 35243 ft | 449 kts | 140° |
| 2026-05-05 02:19 | 10.76101 | 37.08930 | 35247 ft | 449 kts | 140° |
| 2026-05-05 02:19 | 10.71367 | 37.13080 | 35251 ft | 449 kts | 140° |
| 2026-05-05 02:20 | 10.66632 | 37.17228 | 35250 ft | 449 kts | 140° |
| 2026-05-05 02:20 | 10.61900 | 37.21373 | 35251 ft | 449 kts | 140° |
| 2026-05-05 02:21 | 10.57167 | 37.25515 | 35256 ft | 449 kts | 140° |
| 2026-05-05 02:21 | 10.52436 | 37.29655 | 35262 ft | 449 kts | 140° |
| 2026-05-05 02:22 | 10.47705 | 37.33793 | 35261 ft | 449 kts | 140° |
| 2026-05-05 02:22 | 10.43005 | 37.37902 | 35271 ft | 448 kts | 140° |
| 2026-05-05 02:23 | 10.38275 | 37.42035 | 35268 ft | 449 kts | 140° |
| 2026-05-05 02:23 | 10.33543 | 37.46169 | 35275 ft | 448 kts | 140° |
| 2026-05-05 02:24 | 10.28811 | 37.50301 | 35283 ft | 448 kts | 140° |
| 2026-05-05 02:24 | 10.24081 | 37.54430 | 35280 ft | 449 kts | 140° |
| 2026-05-05 02:25 | 10.19349 | 37.58559 | 35283 ft | 448 kts | 140° |
| 2026-05-05 02:25 | 10.14616 | 37.62686 | 35287 ft | 448 kts | 140° |
| 2026-05-05 02:26 | 10.09883 | 37.66812 | 35291 ft | 448 kts | 140° |
| 2026-05-05 02:26 | 10.05147 | 37.70939 | 35295 ft | 449 kts | 140° |
| 2026-05-05 02:27 | 10.00414 | 37.75062 | 35297 ft | 448 kts | 140° |
| 2026-05-05 02:27 | 9.95685 | 37.79180 | 35298 ft | 448 kts | 140° |
| 2026-05-05 02:28 | 9.90951 | 37.83300 | 35299 ft | 448 kts | 140° |
| 2026-05-05 02:28 | 9.86219 | 37.87417 | 35303 ft | 448 kts | 140° |
| 2026-05-05 02:29 | 9.81486 | 37.91533 | 35310 ft | 448 kts | 140° |
| 2026-05-05 02:29 | 9.76786 | 37.95619 | 35314 ft | 448 kts | 140° |
| 2026-05-05 02:30 | 9.72050 | 37.99734 | 35312 ft | 448 kts | 140° |
| 2026-05-05 02:30 | 9.67007 | 38.03365 | 35343 ft | 445 kts | 161° |
| 2026-05-05 02:30 | 9.63987 | 38.03930 | 35370 ft | 443 kts | 181° |
| 2026-05-05 02:31 | 9.60966 | 38.03425 | 35391 ft | 443 kts | 201° |
| 2026-05-05 02:31 | 9.58295 | 38.01897 | 35403 ft | 443 kts | 221° |
| 2026-05-05 02:31 | 9.56101 | 37.99701 | 35375 ft | 446 kts | 227° |
| 2026-05-05 02:32 | 9.52020 | 37.94942 | 35335 ft | 447 kts | 230° |
| 2026-05-05 02:32 | 9.47946 | 37.90193 | 35322 ft | 445 kts | 227° |
| 2026-05-05 02:33 | 9.43761 | 37.85582 | 35322 ft | 444 kts | 227° |
| 2026-05-05 02:33 | 9.39361 | 37.81204 | 35329 ft | 444 kts | 217° |
| 2026-05-05 02:33 | 9.36885 | 37.79313 | 35027 ft | 447 kts | 217° |
| 2026-05-05 02:34 | 9.34398 | 37.77462 | 34517 ft | 440 kts | 216° |
| 2026-05-05 02:34 | 9.31935 | 37.75664 | 34036 ft | 433 kts | 216° |
| 2026-05-05 02:34 | 9.29514 | 37.73900 | 33586 ft | 425 kts | 216° |
| 2026-05-05 02:34 | 9.27068 | 37.72266 | 33163 ft | 418 kts | 208° |
| 2026-05-05 02:35 | 9.24499 | 37.71028 | 32690 ft | 412 kts | 205° |
| 2026-05-05 02:35 | 9.21903 | 37.69838 | 32202 ft | 407 kts | 204° |
| 2026-05-05 02:35 | 9.19319 | 37.68690 | 31720 ft | 403 kts | 204° |
| 2026-05-05 02:35 | 9.16700 | 37.67756 | 31254 ft | 397 kts | 190° |
| 2026-05-05 02:36 | 9.13971 | 37.67716 | 30805 ft | 392 kts | 168° |
| 2026-05-05 02:36 | 9.11471 | 37.68735 | 30313 ft | 388 kts | 144° |
| 2026-05-05 02:36 | 9.09616 | 37.70682 | 29828 ft | 385 kts | 121° |
| 2026-05-05 02:36 | 9.08362 | 37.73062 | 29347 ft | 382 kts | 115° |
| 2026-05-05 02:37 | 9.07315 | 37.75520 | 28850 ft | 380 kts | 112° |
| 2026-05-05 02:37 | 9.06325 | 37.77989 | 28365 ft | 377 kts | 113° |
| 2026-05-05 02:37 | 9.05407 | 37.80460 | 27903 ft | 374 kts | 105° |
| 2026-05-05 02:37 | 9.04929 | 37.83028 | 27441 ft | 370 kts | 96° |
| 2026-05-05 02:38 | 9.04663 | 37.85607 | 26966 ft | 367 kts | 95° |
| 2026-05-05 02:38 | 9.04449 | 37.88171 | 26509 ft | 364 kts | 94° |
| 2026-05-05 02:38 | 9.04274 | 37.90713 | 26054 ft | 361 kts | 94° |
| 2026-05-05 02:38 | 9.04105 | 37.93233 | 25617 ft | 357 kts | 94° |
| 2026-05-05 02:39 | 9.03923 | 37.95725 | 25173 ft | 354 kts | 94° |
| 2026-05-05 02:39 | 9.03731 | 37.98193 | 24737 ft | 350 kts | 94° |
| 2026-05-05 02:39 | 9.03536 | 38.00639 | 24291 ft | 347 kts | 94° |
| 2026-05-05 02:39 | 9.03347 | 38.03061 | 23861 ft | 343 kts | 94° |
| 2026-05-05 02:40 | 9.03164 | 38.05455 | 23434 ft | 339 kts | 94° |
| 2026-05-05 02:40 | 9.02988 | 38.07786 | 23002 ft | 336 kts | 94° |
| 2026-05-05 02:40 | 9.02809 | 38.10130 | 22565 ft | 332 kts | 94° |
| 2026-05-05 02:40 | 9.02631 | 38.12449 | 22138 ft | 329 kts | 94° |
| 2026-05-05 02:41 | 9.02454 | 38.14739 | 21706 ft | 325 kts | 94° |
| 2026-05-05 02:41 | 9.02280 | 38.17006 | 21271 ft | 321 kts | 94° |
| 2026-05-05 02:41 | 9.02107 | 38.19246 | 20845 ft | 318 kts | 94° |
| 2026-05-05 02:41 | 9.01936 | 38.21463 | 20417 ft | 314 kts | 94° |
| 2026-05-05 02:42 | 9.01768 | 38.23647 | 20006 ft | 309 kts | 94° |
| 2026-05-05 02:42 | 9.01601 | 38.25804 | 19583 ft | 305 kts | 94° |
| 2026-05-05 02:42 | 9.01437 | 38.27932 | 19161 ft | 302 kts | 94° |
| 2026-05-05 02:42 | 9.01274 | 38.30037 | 18744 ft | 298 kts | 94° |
| 2026-05-05 02:43 | 9.01114 | 38.32117 | 18327 ft | 295 kts | 94° |
| 2026-05-05 02:43 | 9.00955 | 38.34170 | 17921 ft | 291 kts | 94° |
| 2026-05-05 02:43 | 9.00797 | 38.36196 | 17512 ft | 288 kts | 94° |
| 2026-05-05 02:43 | 9.00642 | 38.38204 | 17105 ft | 284 kts | 93° |
| 2026-05-05 02:44 | 9.00477 | 38.40181 | 16697 ft | 281 kts | 97° |
| 2026-05-05 02:44 | 8.99996 | 38.42076 | 16324 ft | 278 kts | 110° |
| 2026-05-05 02:44 | 8.99119 | 38.43806 | 15920 ft | 276 kts | 118° |
| 2026-05-05 02:44 | 8.98178 | 38.45461 | 15513 ft | 274 kts | 118° |
| 2026-05-05 02:45 | 8.97224 | 38.47117 | 15104 ft | 271 kts | 117° |
| 2026-05-05 02:45 | 8.96280 | 38.48757 | 14706 ft | 269 kts | 117° |
| 2026-05-05 02:45 | 8.95344 | 38.50388 | 14298 ft | 267 kts | 117° |
| 2026-05-05 02:45 | 8.94418 | 38.52005 | 13901 ft | 265 kts | 117° |
| 2026-05-05 02:46 | 8.93493 | 38.53626 | 13345 ft | 268 kts | 117° |
| 2026-05-05 02:46 | 8.92556 | 38.55265 | 12837 ft | 270 kts | 116° |
| 2026-05-05 02:46 | 8.91834 | 38.56988 | 12376 ft | 263 kts | 100° |
| 2026-05-05 02:46 | 8.91670 | 38.58797 | 11969 ft | 255 kts | 82° |
| 2026-05-05 02:47 | 8.92023 | 38.60527 | 11590 ft | 249 kts | 72° |
| 2026-05-05 02:47 | 8.92504 | 38.62203 | 11210 ft | 247 kts | 72° |
| 2026-05-05 02:47 | 8.92995 | 38.63856 | 10816 ft | 242 kts | 72° |
| 2026-05-05 02:47 | 8.93470 | 38.65457 | 10432 ft | 234 kts | 72° |
| 2026-05-05 02:48 | 8.93927 | 38.67015 | 10070 ft | 228 kts | 72° |
| 2026-05-05 02:48 | 8.94371 | 38.68534 | 9702 ft | 222 kts | 73° |
| 2026-05-05 02:48 | 8.94803 | 38.69999 | 9382 ft | 212 kts | 72° |
| 2026-05-05 02:48 | 8.95215 | 38.71396 | 9101 ft | 203 kts | 73° |
| 2026-05-05 02:49 | 8.95606 | 38.72726 | 8853 ft | 190 kts | 73° |
| 2026-05-05 02:49 | 8.95965 | 38.73968 | 8596 ft | 181 kts | 74° |
| 2026-05-05 02:49 | 8.96310 | 38.75164 | 8366 ft | 173 kts | 73° |
| 2026-05-05 02:49 | 8.96644 | 38.76319 | 8136 ft | 170 kts | 73° |
| 2026-05-05 02:50 | 8.96970 | 38.77442 | 7911 ft | 167 kts | 74° |
| 2026-05-05 02:50 | 8.97296 | 38.78565 | 7680 ft | 164 kts | 73° |
| 2026-05-05 02:50 | 8.97594 | 38.79586 | 7615 ft | 121 kts | 73° |
| 2026-05-05 02:50 | 8.97731 | 38.80080 | 7615 ft | 25 kts | 80° |
| 2026-05-05 02:51 | 8.97766 | 38.80165 | 7614 ft | 18 kts | 74° |
| 2026-05-05 02:51 | 8.97805 | 38.80312 | 7612 ft | 26 kts | 75° |
| 2026-05-05 02:51 | 8.97862 | 38.80513 | 7610 ft | 34 kts | 69° |
| 2026-05-05 02:51 | 8.97991 | 38.80683 | 7609 ft | 19 kts | 43° |
| 2026-05-05 02:52 | 8.98091 | 38.80743 | 7612 ft | 17 kts | 327° |
| 2026-05-05 02:52 | 8.98097 | 38.80634 | 7613 ft | 16 kts | 260° |
| 2026-05-05 02:52 | 8.98068 | 38.80533 | 7614 ft | 14 kts | 252° |
| 2026-05-05 02:52 | 8.98035 | 38.80445 | 7615 ft | 12 kts | 246° |
| 2026-05-05 02:53 | 8.98017 | 38.80368 | 7616 ft | 10 kts | 269° |
| 2026-05-05 02:53 | 8.98056 | 38.80322 | 7616 ft | 9 kts | 340° |
| 2026-05-05 02:53 | 8.98124 | 38.80303 | 7614 ft | 11 kts | 349° |
| 2026-05-05 02:53 | 8.98208 | 38.80275 | 7613 ft | 15 kts | 325° |
| 2026-05-05 02:54 | 8.98260 | 38.80186 | 7613 ft | 15 kts | 280° |